Time;durP1;ratioP1;P1;durP2;ratioP2;P2;SDS_P1;SDS_P2;PMS_P1;PMS_P2;Temp;Humidity;BMP_temperature;BMP_pressure;BME280_temperature;BME280_humidity;BME280_pressure;Samples;Min_cycle;Max_cycle;Signal;HPM_P1;HPM_P2
2021/11/15 00:00:16;;;;;;;19.37;12.53;;;10.30;99.90;;;;;;4976969;28;20204;-53
2021/11/15 00:02:44;;;;;;;20.27;12.43;;;10.30;99.90;;;;;;4975206;28;20312;-52
2021/11/15 00:05:12;;;;;;;19.97;12.63;;;10.10;99.90;;;;;;4976240;28;20226;-53
2021/11/15 00:07:41;;;;;;;21.13;12.57;;;10.20;99.90;;;;;;4974698;28;20200;-53
2021/11/15 00:10:09;;;;;;;18.97;12.83;;;10.10;99.90;;;;;;4975132;28;20255;-53
2021/11/15 00:12:36;;;;;;;18.73;11.97;;;10.00;99.90;;;;;;4976466;28;20203;-52
2021/11/15 00:15:04;;;;;;;18.70;12.23;;;10.10;99.90;;;;;;4958678;28;20231;-53
2021/11/15 00:17:30;;;;;;;20.20;13.27;;;10.20;99.90;;;;;;4975587;28;20234;-52
2021/11/15 00:19:57;;;;;;;20.07;12.20;;;10.20;99.90;;;;;;4976821;28;20410;-52
2021/11/15 00:22:24;;;;;;;18.73;11.50;;;10.20;99.90;;;;;;4977306;28;20296;-53
2021/11/15 00:24:51;;;;;;;18.93;12.27;;;10.20;99.90;;;;;;4973188;28;20272;-52
2021/11/15 00:27:18;;;;;;;17.93;11.90;;;10.20;99.90;;;;;;4976010;28;20306;-52
2021/11/15 00:29:45;;;;;;;19.07;11.93;;;10.20;99.90;;;;;;4975318;28;20266;-55
2021/11/15 00:32:12;;;;;;;17.83;11.57;;;10.20;99.90;;;;;;4977356;28;20684;-51
2021/11/15 00:34:39;;;;;;;19.03;12.07;;;10.10;99.90;;;;;;4977625;28;20310;-53
2021/11/15 00:37:06;;;;;;;17.97;11.53;;;10.10;99.90;;;;;;4976704;28;20226;-52
2021/11/15 00:39:33;;;;;;;18.57;11.47;;;10.20;99.90;;;;;;4958253;28;20199;-52
2021/11/15 00:42:00;;;;;;;22.37;13.43;;;10.20;99.90;;;;;;4977562;28;20583;-53
2021/11/15 00:44:27;;;;;;;20.17;12.00;;;10.10;99.90;;;;;;4977701;28;20253;-52
2021/11/15 00:46:53;;;;;;;18.30;11.87;;;10.00;99.90;;;;;;4974919;28;20582;-54
2021/11/15 00:49:20;;;;;;;17.17;11.80;;;10.10;99.90;;;;;;4976675;28;20634;-54
2021/11/15 00:51:47;;;;;;;17.97;11.60;;;10.10;99.90;;;;;;4975541;28;20292;-52
2021/11/15 00:54:14;;;;;;;20.43;11.33;;;10.10;99.90;;;;;;4974375;28;20329;-54
2021/11/15 00:56:41;;;;;;;22.90;12.27;;;10.00;99.90;;;;;;4976918;28;20274;-54
2021/11/15 00:59:08;;;;;;;17.73;11.50;;;10.00;99.90;;;;;;4977281;28;20689;-52
2021/11/15 01:01:35;;;;;;;18.00;11.50;;;10.10;99.90;;;;;;4981510;28;20359;-55
2021/11/15 01:04:02;;;;;;;18.20;11.20;;;10.10;99.90;;;;;;4960769;28;20204;-53
2021/11/15 01:06:29;;;;;;;18.63;11.70;;;10.10;99.90;;;;;;4978957;28;20204;-52
2021/11/15 01:08:56;;;;;;;15.87;11.73;;;10.10;99.90;;;;;;4979119;28;20333;-52
2021/11/15 01:11:22;;;;;;;17.83;10.83;;;10.20;99.90;;;;;;4978782;28;20824;-54
2021/11/15 01:13:49;;;;;;;17.03;11.67;;;10.30;99.90;;;;;;4979921;28;20255;-52
2021/11/15 01:16:16;;;;;;;18.67;11.67;;;10.30;99.90;;;;;;4980217;28;20302;-52
2021/11/15 01:18:43;;;;;;;15.20;11.10;;;10.00;99.90;;;;;;4978420;28;20256;-51
2021/11/15 01:21:12;;;;;;;16.00;12.00;;;10.00;99.90;;;;;;4979632;28;20193;-51
2021/11/15 01:23:39;;;;;;;17.57;11.23;;;10.10;99.90;;;;;;4979742;28;20237;-51
2021/11/15 01:26:07;;;;;;;17.67;11.27;;;10.10;99.90;;;;;;4978601;28;20727;-54
2021/11/15 01:28:35;;;;;;;15.23;10.57;;;10.00;99.90;;;;;;4980794;28;20640;-52
2021/11/15 01:31:02;;;;;;;16.73;10.90;;;10.10;99.90;;;;;;4980914;28;20249;-51
2021/11/15 01:33:30;;;;;;;15.00;10.67;;;10.10;99.90;;;;;;4978965;28;20229;-54
2021/11/15 01:35:57;;;;;;;17.10;10.67;;;10.10;99.90;;;;;;4980178;28;20223;-53
2021/11/15 01:38:23;;;;;;;17.37;10.80;;;10.10;99.90;;;;;;4958346;28;20242;-52
2021/11/15 01:40:50;;;;;;;16.77;10.83;;;10.00;99.90;;;;;;4977654;28;20641;-54
2021/11/15 01:43:17;;;;;;;15.43;10.73;;;9.90;99.90;;;;;;4977484;28;20200;-52
2021/11/15 01:45:44;;;;;;;13.50;10.43;;;9.90;99.90;;;;;;4979598;28;20223;-52
2021/11/15 01:48:13;;;;;;;17.23;11.07;;;9.80;99.90;;;;;;4976793;28;20200;-53
2021/11/15 01:50:41;;;;;;;14.87;10.47;;;9.70;99.90;;;;;;4961690;28;20682;-52
2021/11/15 01:53:09;;;;;;;18.57;11.53;;;9.70;99.90;;;;;;4980935;28;20670;-51
2021/11/15 01:55:37;;;;;;;14.37;10.80;;;9.70;99.90;;;;;;4979465;28;20213;-51
2021/11/15 01:58:08;;;;;;;15.40;10.27;;;9.80;99.90;;;;;;4977494;28;20226;-54
2021/11/15 02:00:52;;;;;;;15.97;11.30;;;9.90;99.90;;;;;;4976570;28;20212;-52
2021/11/15 02:03:20;;;;;;;16.30;11.27;;;9.90;99.90;;;;;;4979730;28;20226;-52
2021/11/15 02:05:48;;;;;;;18.70;12.90;;;9.90;99.90;;;;;;4979367;28;20230;-51
2021/11/15 02:08:16;;;;;;;18.00;12.63;;;9.60;99.90;;;;;;4978110;28;20296;-52
2021/11/15 02:10:44;;;;;;;19.53;13.10;;;9.60;99.90;;;;;;4978940;28;20280;-52
2021/11/15 02:13:17;;;;;;;20.13;12.93;;;9.50;99.90;;;;;;4977554;28;20683;-52
2021/11/15 02:15:45;;;;;;;19.97;13.63;;;9.60;99.90;;;;;;4979787;28;20309;-52
2021/11/15 02:18:12;;;;;;;23.47;13.63;;;9.60;99.90;;;;;;4976987;28;20232;-52
2021/11/15 02:20:54;;;;;;;20.63;14.20;;;9.60;99.90;;;;;;4962826;28;20214;-51
2021/11/15 02:23:23;;;;;;;21.40;13.57;;;9.60;99.90;;;;;;4978648;28;20236;-52
2021/11/15 02:25:53;;;;;;;21.07;12.60;;;9.60;99.90;;;;;;4979245;28;20332;-52
2021/11/15 02:28:30;;;;;;;25.23;13.33;;;9.60;99.90;;;;;;4976728;28;20360;-52
2021/11/15 02:30:58;;;;;;;18.90;12.13;;;9.60;99.90;;;;;;4977186;28;20232;-52
2021/11/15 02:33:31;;;;;;;23.73;13.97;;;9.50;99.90;;;;;;4977607;28;20209;-53
2021/11/15 02:35:58;;;;;;;19.97;13.17;;;9.40;99.90;;;;;;4979433;28;20629;-52
2021/11/15 02:38:26;;;;;;;21.37;13.57;;;9.40;99.90;;;;;;4975189;28;20201;-52
2021/11/15 02:40:54;;;;;;;20.07;13.67;;;9.40;99.90;;;;;;4977812;28;20672;-52
2021/11/15 02:43:21;;;;;;;23.17;14.27;;;9.40;99.90;;;;;;4977468;28;20275;-53
2021/11/15 02:45:48;;;;;;;18.43;13.53;;;9.50;99.90;;;;;;4977113;28;21145;-52
2021/11/15 02:48:19;;;;;;;19.73;13.53;;;9.60;99.90;;;;;;4977654;28;20664;-52
2021/11/15 02:50:47;;;;;;;21.30;14.50;;;9.60;99.90;;;;;;4976463;28;20618;-52
2021/11/15 02:53:14;;;;;;;20.13;12.97;;;9.50;99.90;;;;;;4977554;28;20233;-54
2021/11/15 02:55:43;;;;;;;22.03;13.97;;;9.50;99.90;;;;;;4977425;28;20229;-51
2021/11/15 02:58:12;;;;;;;21.47;14.00;;;9.50;99.90;;;;;;4976947;28;20626;-51
2021/11/15 03:01:07;;;;;;;24.57;15.17;;;9.60;99.90;;;;;;4978266;28;20218;-51
2021/11/15 03:03:35;;;;;;;25.13;14.13;;;9.60;99.90;;;;;;4977494;28;20317;-53
2021/11/15 03:06:03;;;;;;;21.87;13.73;;;9.60;99.90;;;;;;4959701;28;20210;-54
2021/11/15 03:08:30;;;;;;;21.60;14.40;;;9.60;99.90;;;;;;4978417;28;20199;-52
2021/11/15 03:11:00;;;;;;;23.43;14.73;;;9.40;99.90;;;;;;4974899;28;20550;-52
2021/11/15 03:13:43;;;;;;;20.60;14.23;;;9.40;99.90;;;;;;4978077;28;20734;-52
2021/11/15 03:16:11;;;;;;;20.27;13.40;;;9.40;99.90;;;;;;4978942;28;20209;-52
2021/11/15 03:18:40;;;;;;;21.87;15.13;;;9.40;99.90;;;;;;4976256;28;20267;-53
2021/11/15 03:21:14;;;;;;;24.03;15.50;;;9.40;99.90;;;;;;4976615;28;20275;-52
2021/11/15 03:23:43;;;;;;;21.67;14.20;;;9.30;99.90;;;;;;4977176;28;20286;-54
2021/11/15 03:26:11;;;;;;;24.47;14.73;;;9.30;99.90;;;;;;4977189;28;20232;-53
2021/11/15 03:28:41;;;;;;;22.87;15.67;;;9.30;99.90;;;;;;4973897;28;20247;-52
2021/11/15 03:31:16;;;;;;;22.97;15.23;;;9.30;99.90;;;;;;4959416;28;20684;-52
2021/11/15 03:33:43;;;;;;;23.53;14.47;;;9.40;99.90;;;;;;4979064;28;20242;-52
2021/11/15 03:36:10;;;;;;;22.50;15.00;;;9.40;99.90;;;;;;4976785;28;20233;-54
2021/11/15 03:38:37;;;;;;;23.93;15.93;;;9.30;99.90;;;;;;4977171;28;20232;-50
2021/11/15 03:41:05;;;;;;;21.93;14.57;;;9.30;99.90;;;;;;4957447;28;20208;-54
2021/11/15 03:43:32;;;;;;;22.33;14.20;;;9.30;99.90;;;;;;4973541;28;20280;-53
2021/11/15 03:46:00;;;;;;;24.40;15.00;;;9.30;99.90;;;;;;4960169;28;20299;-52
2021/11/15 03:48:27;;;;;;;20.67;14.83;;;9.30;99.90;;;;;;4976482;28;20214;-52
2021/11/15 03:50:55;;;;;;;23.80;14.40;;;9.20;99.90;;;;;;4977968;28;20230;-52
2021/11/15 03:53:24;;;;;;;22.73;14.10;;;9.20;99.90;;;;;;4976926;28;20213;-52
2021/11/15 03:55:52;;;;;;;21.67;14.53;;;9.20;99.90;;;;;;4975460;28;20316;-52
2021/11/15 03:58:19;;;;;;;21.53;14.07;;;9.20;99.90;;;;;;4976747;28;20270;-52
2021/11/15 04:00:47;;;;;;;22.53;13.70;;;9.20;99.90;;;;;;4975618;28;20298;-53
2021/11/15 04:03:29;;;;;;;21.03;13.77;;;9.30;99.90;;;;;;4978523;28;20239;-53
2021/11/15 04:06:00;;;;;;;23.30;14.93;;;9.30;99.90;;;;;;4976444;28;20223;-52
2021/11/15 04:08:28;;;;;;;23.00;15.53;;;9.30;99.90;;;;;;4977520;28;20248;-54
2021/11/15 04:10:54;;;;;;;22.37;15.57;;;9.30;99.90;;;;;;4959004;28;20324;-53
2021/11/15 04:13:27;;;;;;;21.87;15.10;;;9.30;99.90;;;;;;4976506;28;20236;-52
2021/11/15 04:15:57;;;;;;;24.03;15.37;;;9.30;99.90;;;;;;4973035;28;20315;-53
2021/11/15 04:18:27;;;;;;;22.27;15.23;;;9.40;99.90;;;;;;4976760;28;20230;-51
2021/11/15 04:20:55;;;;;;;23.57;15.20;;;9.50;99.90;;;;;;4977705;28;20244;-51
2021/11/15 04:23:22;;;;;;;26.40;16.53;;;9.40;99.90;;;;;;4976389;28;20210;-52
2021/11/15 04:25:49;;;;;;;22.97;15.43;;;9.30;99.90;;;;;;4977341;28;20269;-51
2021/11/15 04:28:17;;;;;;;22.47;15.57;;;9.40;99.90;;;;;;4975730;28;20286;-51
2021/11/15 04:30:44;;;;;;;23.53;16.03;;;9.40;99.90;;;;;;4977146;28;20292;-52
2021/11/15 04:33:11;;;;;;;22.30;15.30;;;9.40;99.90;;;;;;4982085;28;20683;-53
2021/11/15 04:35:38;;;;;;;26.80;15.47;;;9.30;99.90;;;;;;4982703;28;20213;-50
2021/11/15 04:38:06;;;;;;;22.47;15.37;;;9.30;99.90;;;;;;4978536;28;20297;-53
2021/11/15 04:40:33;;;;;;;23.23;14.67;;;9.30;99.90;;;;;;4981566;28;20233;-52
2021/11/15 04:43:00;;;;;;;23.17;16.03;;;9.30;99.90;;;;;;4979798;28;20847;-54
2021/11/15 04:45:27;;;;;;;25.60;16.00;;;9.10;99.90;;;;;;4981398;28;20242;-52
2021/11/15 04:47:55;;;;;;;21.83;15.73;;;9.10;99.90;;;;;;4978357;28;20318;-52
2021/11/15 04:50:22;;;;;;;24.13;15.87;;;9.10;99.90;;;;;;4980779;28;20276;-51
2021/11/15 04:52:49;;;;;;;26.30;17.00;;;8.90;99.90;;;;;;4979758;28;20272;-53
2021/11/15 04:55:22;;;;;;;28.80;16.17;;;8.90;99.90;;;;;;4980586;28;20216;-52
2021/11/15 04:57:49;;;;;;;23.37;15.50;;;8.90;99.90;;;;;;4979146;28;20235;-53
2021/11/15 05:00:19;;;;;;;24.20;15.60;;;9.10;99.90;;;;;;4979130;28;20305;-53
2021/11/15 05:02:48;;;;;;;24.93;17.03;;;9.10;99.90;;;;;;4976892;28;20686;-53
2021/11/15 05:05:17;;;;;;;25.23;15.77;;;8.90;99.90;;;;;;4981566;28;20204;-55
2021/11/15 05:07:46;;;;;;;23.17;15.10;;;8.90;99.90;;;;;;4979728;28;20201;-52
2021/11/15 05:10:14;;;;;;;27.40;17.33;;;8.90;99.90;;;;;;4980471;28;20210;-54
2021/11/15 05:12:41;;;;;;;26.23;14.90;;;8.90;99.90;;;;;;4978728;28;20207;-52
2021/11/15 05:15:14;;;;;;;23.77;16.00;;;8.90;99.90;;;;;;4981219;28;20309;-53
2021/11/15 05:17:42;;;;;;;26.77;16.70;;;8.90;99.90;;;;;;4978310;28;20229;-53
2021/11/15 05:20:09;;;;;;;23.73;15.37;;;8.80;99.90;;;;;;4978506;28;20335;-54
2021/11/15 05:22:37;;;;;;;26.20;17.33;;;8.80;99.90;;;;;;4977323;28;21048;-53
2021/11/15 05:25:06;;;;;;;22.33;15.20;;;8.70;99.90;;;;;;4968290;28;20266;-51
2021/11/15 05:27:34;;;;;;;26.67;16.70;;;8.70;99.90;;;;;;4978967;28;20241;-51
2021/11/15 05:30:04;;;;;;;28.77;17.77;;;8.80;99.90;;;;;;4977801;28;20282;-52
2021/11/15 05:32:31;;;;;;;29.53;17.17;;;8.70;99.90;;;;;;4980040;28;20336;-53
2021/11/15 05:34:58;;;;;;;28.33;17.07;;;8.70;99.90;;;;;;4980120;28;20255;-54
2021/11/15 05:37:25;;;;;;;30.03;18.10;;;8.70;99.90;;;;;;4979366;28;20656;-53
2021/11/15 05:39:52;;;;;;;29.60;17.27;;;8.80;99.90;;;;;;4978377;28;20639;-52
2021/11/15 05:42:19;;;;;;;25.50;16.47;;;8.80;99.90;;;;;;4976877;28;20572;-53
2021/11/15 05:44:45;;;;;;;29.67;17.40;;;9.00;99.90;;;;;;4978032;28;20533;-53
2021/11/15 05:47:12;;;;;;;29.40;18.03;;;9.10;99.90;;;;;;4976698;28;20240;-54
2021/11/15 05:49:39;;;;;;;28.87;18.33;;;9.20;99.90;;;;;;4962104;28;20269;-52
2021/11/15 05:52:07;;;;;;;29.70;18.37;;;9.20;99.90;;;;;;4976350;28;20536;-52
2021/11/15 05:54:33;;;;;;;27.03;16.60;;;9.10;99.90;;;;;;4979563;28;20302;-53
2021/11/15 05:57:00;;;;;;;31.90;18.97;;;9.10;99.90;;;;;;4976905;28;20238;-52
2021/11/15 05:59:28;;;;;;;30.30;17.40;;;9.10;99.90;;;;;;4959635;28;20204;-52
2021/11/15 06:01:55;;;;;;;25.53;17.37;;;9.00;99.90;;;;;;4977120;28;20195;-52
2021/11/15 06:04:22;;;;;;;27.37;17.13;;;9.10;99.90;;;;;;4978768;28;20290;-52
2021/11/15 06:06:51;;;;;;;28.03;18.10;;;9.10;99.90;;;;;;4981938;28;20726;-54
2021/11/15 06:09:18;;;;;;;30.10;18.80;;;9.00;99.90;;;;;;4978405;28;20639;-54
2021/11/15 06:11:45;;;;;;;27.47;18.60;;;9.00;99.90;;;;;;4975125;28;20261;-53
2021/11/15 06:14:12;;;;;;;28.83;18.63;;;9.00;99.90;;;;;;4978678;28;20281;-52
2021/11/15 06:16:39;;;;;;;29.37;18.73;;;8.90;99.90;;;;;;4978167;28;20280;-52
2021/11/15 06:19:06;;;;;;;28.53;18.07;;;9.00;99.90;;;;;;4975805;28;20616;-52
2021/11/15 06:21:32;;;;;;;28.30;17.90;;;8.90;99.90;;;;;;4977742;28;20322;-54
2021/11/15 06:24:01;;;;;;;29.37;17.53;;;8.90;99.90;;;;;;4979320;28;20272;-53
2021/11/15 06:26:30;;;;;;;29.47;18.23;;;8.80;99.90;;;;;;4956995;28;20373;-54
2021/11/15 06:28:57;;;;;;;32.70;18.60;;;8.80;99.90;;;;;;4956944;28;20332;-53
2021/11/15 06:31:24;;;;;;;29.10;17.27;;;8.90;99.90;;;;;;4957007;28;20207;-53
2021/11/15 06:33:52;;;;;;;31.27;18.70;;;8.80;99.90;;;;;;4957932;28;20221;-53
2021/11/15 06:36:24;;;;;;;32.80;19.57;;;8.80;99.90;;;;;;4959139;28;20229;-54
2021/11/15 06:38:53;;;;;;;31.93;18.27;;;8.90;99.90;;;;;;4960017;28;20291;-54
2021/11/15 06:41:22;;;;;;;33.37;19.03;;;8.90;99.90;;;;;;4955041;28;20560;-54
2021/11/15 06:43:49;;;;;;;30.27;18.53;;;8.80;99.90;;;;;;4952866;28;20685;-52
2021/11/15 06:46:16;;;;;;;33.30;19.40;;;8.70;99.90;;;;;;4957144;28;20203;-55
2021/11/15 06:48:44;;;;;;;34.57;19.17;;;8.70;99.90;;;;;;4953574;28;20288;-53
2021/11/15 06:51:30;;;;;;;29.43;18.37;;;8.80;99.90;;;;;;4957516;28;20227;-52
2021/11/15 06:53:57;;;;;;;32.27;18.03;;;8.90;99.90;;;;;;4954103;28;20258;-53
2021/11/15 06:56:24;;;;;;;30.83;19.80;;;8.80;99.90;;;;;;4952398;28;22736;-54
2021/11/15 06:58:51;;;;;;;27.23;18.47;;;8.90;99.90;;;;;;4954809;28;20200;-52
2021/11/15 07:01:18;;;;;;;31.83;18.53;;;8.70;99.90;;;;;;4944977;28;20232;-53
2021/11/15 07:03:45;;;;;;;32.80;19.17;;;8.70;99.90;;;;;;4953772;28;20213;-54
2021/11/15 07:06:12;;;;;;;34.03;19.07;;;8.60;99.90;;;;;;4955560;28;20732;-52
2021/11/15 07:08:39;;;;;;;29.53;19.20;;;8.70;99.90;;;;;;4948752;28;20732;-53
2021/11/15 07:11:06;;;;;;;31.80;18.93;;;8.70;99.90;;;;;;4955767;28;20720;-51
2021/11/15 07:13:33;;;;;;;31.53;17.90;;;8.80;99.90;;;;;;4950423;28;20290;-52
2021/11/15 07:15:59;;;;;;;29.10;17.33;;;8.80;99.90;;;;;;4956502;28;21190;-52
2021/11/15 07:18:28;;;;;;;30.40;18.37;;;8.80;99.90;;;;;;4952852;28;20314;-53
2021/11/15 07:20:55;;;;;;;27.07;17.33;;;8.80;99.90;;;;;;4968366;28;20297;-54
2021/11/15 07:23:23;;;;;;;30.40;18.87;;;8.70;99.90;;;;;;4951099;28;20301;-54
2021/11/15 07:25:50;;;;;;;30.43;17.50;;;8.70;99.90;;;;;;4968136;28;20370;-53
2021/11/15 07:28:18;;;;;;;29.47;18.73;;;8.70;99.90;;;;;;4971973;28;20306;-53
2021/11/15 07:30:45;;;;;;;25.90;18.20;;;8.70;99.90;;;;;;4976769;28;20740;-54
2021/11/15 07:33:13;;;;;;;30.67;18.90;;;8.60;99.90;;;;;;4974240;28;20301;-53
2021/11/15 07:35:40;;;;;;;31.83;18.33;;;8.70;99.90;;;;;;4975912;28;20225;-53
2021/11/15 07:38:07;;;;;;;28.93;18.53;;;8.80;99.90;;;;;;4974126;28;20271;-54
2021/11/15 07:40:34;;;;;;;29.13;18.23;;;8.90;99.90;;;;;;4976701;28;20209;-52
2021/11/15 07:43:01;;;;;;;31.37;19.17;;;8.60;99.90;;;;;;4975284;28;20714;-52
2021/11/15 07:45:28;;;;;;;28.50;17.77;;;8.70;99.90;;;;;;4975816;28;20265;-52
2021/11/15 07:47:55;;;;;;;33.23;19.10;;;8.80;99.90;;;;;;4972794;28;20232;-54
2021/11/15 07:50:22;;;;;;;28.77;17.93;;;8.80;99.90;;;;;;4977012;28;20304;-53
2021/11/15 07:52:49;;;;;;;31.10;19.27;;;8.80;99.90;;;;;;4971411;28;20290;-51
2021/11/15 07:55:16;;;;;;;31.00;18.37;;;8.70;99.90;;;;;;4978103;28;20312;-52
2021/11/15 07:57:44;;;;;;;29.60;18.17;;;8.80;99.90;;;;;;4976594;28;20675;-52
2021/11/15 08:00:20;;;;;;;31.93;18.50;;;8.90;99.90;;;;;;4975017;28;20207;-51
2021/11/15 08:02:48;;;;;;;32.47;19.03;;;8.80;99.90;;;;;;4975907;28;20269;-54
2021/11/15 08:05:21;;;;;;;30.83;18.90;;;8.70;99.90;;;;;;4974731;28;20260;-52
2021/11/15 08:07:48;;;;;;;27.00;18.50;;;8.70;99.90;;;;;;4979105;28;20282;-51
2021/11/15 08:10:18;;;;;;;30.23;18.87;;;8.70;99.90;;;;;;4977989;28;20306;-53
2021/11/15 08:12:47;;;;;;;30.43;18.93;;;8.70;99.90;;;;;;4978906;28;20621;-52
2021/11/15 08:15:17;;;;;;;30.47;19.00;;;8.80;99.90;;;;;;4979045;28;20217;-53
2021/11/15 08:17:46;;;;;;;28.63;17.87;;;8.90;99.90;;;;;;4977800;28;20234;-52
2021/11/15 08:20:20;;;;;;;27.60;17.13;;;8.90;99.90;;;;;;4979926;28;20252;-51
2021/11/15 08:22:50;;;;;;;23.97;16.33;;;8.70;99.90;;;;;;4974257;28;20631;-51
2021/11/15 08:25:26;;;;;;;26.97;16.33;;;8.70;99.90;;;;;;4977078;28;20613;-51
2021/11/15 08:27:54;;;;;;;27.17;16.87;;;8.70;99.90;;;;;;4974671;28;20297;-51
2021/11/15 08:30:21;;;;;;;27.30;17.33;;;8.70;99.90;;;;;;4976298;28;20295;-52
2021/11/15 08:32:49;;;;;;;28.37;17.40;;;8.70;99.90;;;;;;4975438;28;21172;-52
2021/11/15 08:35:19;;;;;;;27.97;17.47;;;8.80;99.90;;;;;;4978727;28;20240;-52
2021/11/15 08:38:23;;;;;;;26.33;15.17;;;8.80;99.90;;;;;;4974642;28;20286;-51
2021/11/15 08:40:51;;;;;;;29.77;17.03;;;8.70;99.90;;;;;;4976057;28;20207;-51
2021/11/15 08:43:21;;;;;;;28.57;16.33;;;8.80;99.90;;;;;;4977750;28;20229;-51
2021/11/15 08:45:49;;;;;;;29.20;17.33;;;8.80;99.90;;;;;;4978920;28;20642;-51
2021/11/15 08:48:17;;;;;;;25.80;16.87;;;8.80;99.90;;;;;;4977154;28;20729;-52
2021/11/15 08:50:44;;;;;;;26.80;17.13;;;8.80;99.90;;;;;;4979342;28;20392;-53
2021/11/15 08:53:11;;;;;;;29.63;18.43;;;8.80;99.90;;;;;;4979945;28;20280;-51
2021/11/15 08:55:38;;;;;;;28.23;17.83;;;8.70;99.90;;;;;;4980546;28;20250;-52
2021/11/15 08:58:05;;;;;;;28.73;18.90;;;8.60;99.90;;;;;;4981089;28;20227;-61
2021/11/15 09:00:32;;;;;;;29.07;17.67;;;8.60;99.90;;;;;;4980228;28;20576;-58
2021/11/15 09:02:59;;;;;;;31.70;18.20;;;8.80;99.90;;;;;;4978421;28;20513;-59
2021/11/15 09:05:27;;;;;;;30.37;17.80;;;8.90;99.90;;;;;;4976623;28;20198;-57
2021/11/15 09:07:54;;;;;;;31.07;17.97;;;8.90;99.90;;;;;;4976800;28;20228;-59
2021/11/15 09:10:21;;;;;;;28.37;17.70;;;8.90;99.90;;;;;;4978309;28;20218;-58
2021/11/15 09:12:48;;;;;;;35.13;20.57;;;8.70;99.90;;;;;;4975524;28;20342;-59
2021/11/15 09:15:17;;;;;;;27.40;16.90;;;8.70;99.90;;;;;;4976916;28;20226;-60
2021/11/15 09:17:44;;;;;;;26.10;16.43;;;8.70;99.90;;;;;;4965459;28;20206;-59
2021/11/15 09:20:12;;;;;;;26.57;16.30;;;8.60;99.90;;;;;;4976688;28;20286;-60
2021/11/15 09:22:40;;;;;;;26.10;15.43;;;8.70;99.90;;;;;;4960506;28;20224;-58
2021/11/15 09:25:09;;;;;;;27.37;15.80;;;8.80;99.90;;;;;;4979898;28;20626;-58
2021/11/15 09:27:40;;;;;;;28.10;16.07;;;8.70;99.90;;;;;;4974424;28;20289;-58
2021/11/15 09:30:09;;;;;;;27.37;15.90;;;8.50;99.90;;;;;;4967665;28;20722;-60
2021/11/15 09:32:37;;;;;;;24.63;14.10;;;8.40;99.90;;;;;;4977702;28;20199;-60
2021/11/15 09:35:06;;;;;;;26.77;14.53;;;8.50;99.90;;;;;;4979048;28;20299;-58
2021/11/15 09:37:33;;;;;;;25.60;13.67;;;8.60;99.90;;;;;;4972912;28;20872;-60
2021/11/15 09:40:00;;;;;;;25.13;14.60;;;8.70;99.90;;;;;;4978506;28;20260;-59
2021/11/15 09:42:27;;;;;;;22.47;12.87;;;8.60;99.90;;;;;;4972198;28;20222;-58
2021/11/15 09:44:54;;;;;;;23.23;13.37;;;8.50;99.90;;;;;;4973652;28;20204;-58
2021/11/15 09:47:21;;;;;;;24.47;14.20;;;8.60;99.90;;;;;;4975941;28;20315;-60
2021/11/15 09:49:48;;;;;;;26.40;14.57;;;8.60;99.90;;;;;;4975270;28;20954;-58
2021/11/15 09:52:15;;;;;;;21.93;14.07;;;8.60;99.90;;;;;;4977113;28;20555;-60
2021/11/15 09:54:47;;;;;;;24.23;14.73;;;8.60;99.90;;;;;;4978115;28;20658;-59
2021/11/15 09:57:42;;;;;;;24.20;13.70;;;8.70;99.90;;;;;;4976825;28;20317;-59
2021/11/15 10:00:14;;;;;;;23.93;14.13;;;8.70;99.90;;;;;;4976949;28;20204;-60
2021/11/15 10:02:42;;;;;;;25.00;14.07;;;8.80;99.90;;;;;;4976460;28;20291;-59
2021/11/15 10:05:10;;;;;;;22.77;14.37;;;8.90;99.90;;;;;;4979531;28;20336;-58
2021/11/15 10:07:47;;;;;;;23.27;14.03;;;8.80;99.90;;;;;;4976050;28;20272;-59
2021/11/15 10:10:34;;;;;;;24.07;13.47;;;9.00;99.90;;;;;;4978547;28;20662;-60
2021/11/15 10:13:04;;;;;;;23.73;13.57;;;8.80;99.90;;;;;;4975334;28;20350;-52
2021/11/15 10:15:51;;;;;;;24.03;13.20;;;8.80;99.90;;;;;;4974604;28;20202;-51
2021/11/15 10:18:34;;;;;;;19.70;11.03;;;8.80;99.90;;;;;;4976533;28;20699;-54
2021/11/15 10:21:06;;;;;;;21.50;11.13;;;8.70;99.90;;;;;;4973268;28;20315;-54
2021/11/15 10:23:35;;;;;;;19.23;12.23;;;8.70;99.90;;;;;;4973857;28;20232;-51
2021/11/15 10:26:28;;;;;;;19.07;11.70;;;8.70;99.90;;;;;;4976168;28;20577;-53
2021/11/15 10:29:05;;;;;;;22.13;11.27;;;8.80;99.90;;;;;;4973580;28;20283;-52
2021/11/15 10:31:37;;;;;;;18.43;9.73;;;8.90;99.90;;;;;;4973046;28;20212;-52
2021/11/15 10:34:07;;;;;;;18.03;10.23;;;8.70;99.90;;;;;;4959191;28;20732;-53
2021/11/15 10:36:54;;;;;;;11.93;8.53;;;8.70;99.90;;;;;;4975065;28;20733;-53
2021/11/15 10:39:39;;;;;;;15.23;9.03;;;8.50;99.90;;;;;;4965322;28;20662;-53
2021/11/15 10:42:36;;;;;;;15.97;7.70;;;8.40;99.90;;;;;;4976631;28;20205;-52
2021/11/15 10:45:16;;;;;;;14.40;8.20;;;8.40;99.90;;;;;;4973415;28;20304;-51
2021/11/15 10:47:55;;;;;;;10.10;6.67;;;8.50;99.90;;;;;;4976667;28;20653;-52
2021/11/15 10:50:49;;;;;;;12.53;6.53;;;8.50;99.90;;;;;;4976315;28;20216;-52
2021/11/15 10:53:37;;;;;;;10.33;6.73;;;8.50;99.90;;;;;;4973071;28;20645;-52
2021/11/15 10:56:12;;;;;;;8.20;5.53;;;8.60;99.90;;;;;;4978464;28;20249;-51
2021/11/15 10:58:47;;;;;;;10.47;6.53;;;8.50;99.90;;;;;;4975781;28;20294;-51
2021/11/15 11:01:16;;;;;;;9.93;6.23;;;8.40;99.90;;;;;;4976484;28;20212;-51
2021/11/15 11:03:44;;;;;;;11.77;7.27;;;8.30;99.90;;;;;;4977507;28;20211;-53
2021/11/15 11:06:15;;;;;;;11.53;6.63;;;8.50;99.90;;;;;;4976273;28;20263;-52
2021/11/15 11:08:45;;;;;;;9.63;5.87;;;8.60;99.90;;;;;;4975609;28;20985;-53
2021/11/15 11:11:25;;;;;;;11.07;6.43;;;8.60;99.90;;;;;;4976604;28;20288;-52
2021/11/15 11:13:59;;;;;;;12.40;6.80;;;8.70;99.90;;;;;;4975499;28;20300;-52
2021/11/15 11:16:48;;;;;;;10.07;6.00;;;8.70;99.90;;;;;;4976375;28;20253;-52
2021/11/15 11:19:43;;;;;;;9.43;5.60;;;8.60;99.90;;;;;;4974506;28;20333;-53
2021/11/15 11:27:32;;;;;;;11.57;6.30;;;8.60;99.90;;;;;;4974384;28;20292;-51
2021/11/15 11:30:03;;;;;;;10.90;6.40;;;8.40;99.90;;;;;;4971236;28;20265;-52
2021/11/15 11:32:30;;;;;;;10.33;6.00;;;8.50;99.90;;;;;;4968598;28;20644;-52
2021/11/15 11:34:59;;;;;;;10.27;6.30;;;8.60;99.90;;;;;;4973025;28;20234;-54
2021/11/15 11:37:28;;;;;;;10.37;6.20;;;8.70;99.90;;;;;;4969662;28;20369;-53
2021/11/15 11:40:00;;;;;;;11.67;6.80;;;8.80;99.90;;;;;;4972987;28;20942;-53
2021/11/15 11:42:28;;;;;;;10.57;6.67;;;8.60;99.90;;;;;;4968387;28;20209;-52
2021/11/15 11:44:56;;;;;;;11.70;6.87;;;8.50;99.90;;;;;;4969991;28;20734;-54
2021/11/15 11:47:26;;;;;;;12.23;7.57;;;8.60;99.90;;;;;;4972125;28;20237;-52
2021/11/15 11:49:59;;;;;;;13.60;8.33;;;8.50;99.90;;;;;;4974703;28;20227;-55
2021/11/15 11:52:38;;;;;;;14.33;8.23;;;8.40;99.90;;;;;;4972360;28;20321;-52
2021/11/15 11:55:21;;;;;;;15.80;8.17;;;8.40;99.90;;;;;;4965450;28;20338;-52
2021/11/15 11:57:48;;;;;;;14.40;8.33;;;8.40;99.90;;;;;;4974364;28;20291;-52
2021/11/15 12:00:16;;;;;;;16.73;8.57;;;8.30;99.90;;;;;;4972233;28;20572;-54
2021/11/15 12:02:45;;;;;;;13.67;7.63;;;8.30;99.90;;;;;;4976132;28;20288;-52
2021/11/15 12:05:15;;;;;;;15.40;8.17;;;8.30;99.90;;;;;;4975455;28;20237;-51
2021/11/15 12:07:54;;;;;;;16.17;8.73;;;8.40;99.90;;;;;;4975428;28;20313;-52
2021/11/15 12:10:44;;;;;;;13.83;7.73;;;8.60;99.90;;;;;;4974633;28;20305;-53
2021/11/15 12:13:15;;;;;;;16.13;8.63;;;8.30;99.90;;;;;;4969797;28;20296;-54
2021/11/15 12:16:01;;;;;;;16.77;8.23;;;8.40;99.90;;;;;;4973411;28;20206;-51
2021/11/15 12:18:33;;;;;;;16.77;8.30;;;8.30;99.90;;;;;;4969513;28;20221;-52
2021/11/15 12:21:13;;;;;;;17.00;9.23;;;8.40;99.90;;;;;;4969308;28;20300;-54
2021/11/15 12:23:42;;;;;;;15.40;8.87;;;8.30;99.90;;;;;;4971920;28;20202;-53
2021/11/15 12:26:24;;;;;;;19.27;10.57;;;8.40;99.90;;;;;;4971766;28;20938;-52
2021/11/15 12:28:53;;;;;;;13.93;7.80;;;8.40;99.90;;;;;;4965877;28;20214;-52
2021/11/15 12:31:46;;;;;;;19.13;9.83;;;8.30;99.90;;;;;;4977655;28;20294;-52
2021/11/15 12:34:20;;;;;;;18.40;9.13;;;8.40;99.90;;;;;;4984409;28;20276;-54
2021/11/15 12:36:51;;;;;;;20.03;9.20;;;8.40;99.90;;;;;;4986691;28;20316;-51
2021/11/15 12:39:25;;;;;;;16.27;8.33;;;8.40;99.90;;;;;;4991848;28;20255;-54
2021/11/15 12:41:55;;;;;;;15.77;8.47;;;8.40;99.90;;;;;;4984704;28;20226;-53
2021/11/15 12:44:26;;;;;;;20.87;9.37;;;8.50;99.90;;;;;;4985177;28;20619;-54
2021/11/15 12:46:57;;;;;;;17.73;9.37;;;8.50;99.90;;;;;;4981368;28;20295;-53
2021/11/15 12:49:30;;;;;;;16.20;8.40;;;8.50;99.90;;;;;;4984006;28;20243;-52
2021/11/15 12:52:02;;;;;;;17.80;9.13;;;8.40;99.90;;;;;;4986675;28;20246;-53
2021/11/15 12:54:41;;;;;;;15.13;7.87;;;8.40;99.90;;;;;;4993109;28;20670;-54
2021/11/15 12:57:19;;;;;;;12.97;8.13;;;8.50;99.90;;;;;;4981602;28;20331;-53